createdAt,value
2022-12-24T00:02:02.987Z,15.55
2022-12-24T00:04:31.739Z,15.58
2022-12-24T00:07:00.052Z,15.62
2022-12-24T00:33:56.255Z,15.71
2022-12-24T00:36:26.881Z,15.70
2022-12-24T00:38:59.342Z,15.75
2022-12-24T00:41:31.289Z,15.77
2022-12-24T00:44:10.698Z,15.76
2022-12-24T00:46:40.888Z,15.80
2022-12-24T00:49:10.664Z,15.78
2022-12-24T00:51:41.720Z,15.79
2022-12-24T00:54:10.362Z,15.79
2022-12-24T00:57:09.735Z,15.78
2022-12-24T00:59:53.863Z,15.77
2022-12-24T01:02:24.889Z,15.80
2022-12-24T01:05:25.749Z,15.77
2022-12-24T01:07:55.379Z,15.74
2022-12-24T01:10:24.623Z,15.72
2022-12-24T01:12:53.044Z,15.67
2022-12-24T01:15:24.227Z,15.66
2022-12-24T01:17:53.256Z,15.69
2022-12-24T01:20:23.137Z,15.71
2022-12-24T01:26:03.662Z,15.66
2022-12-24T01:28:34.165Z,15.63
2022-12-24T01:31:03.652Z,15.61
2022-12-24T01:33:32.096Z,15.57
2022-12-24T01:36:05.668Z,15.60
2022-12-24T01:38:34.281Z,15.59
2022-12-24T01:41:21.480Z,15.58
2022-12-24T01:43:50.192Z,15.56
2022-12-24T01:46:22.909Z,15.54
2022-12-24T01:49:09.429Z,15.51
2022-12-24T01:51:42.183Z,15.49
2022-12-24T01:54:15.916Z,15.50
2022-12-24T01:56:50.151Z,15.51
2022-12-24T01:59:21.692Z,15.40
2022-12-24T02:02:01.814Z,15.31
2022-12-24T02:04:56.688Z,15.27
2022-12-24T02:07:30.628Z,15.16
2022-12-24T02:10:01.741Z,15.12
2022-12-24T02:12:53.695Z,15.09
2022-12-24T02:15:23.871Z,15.02
2022-12-24T02:18:01.171Z,14.96
2022-12-24T02:21:36.431Z,14.92
2022-12-24T02:24:33.907Z,14.87
2022-12-24T02:27:31.608Z,14.79
2022-12-24T02:30:24.280Z,14.80
2022-12-24T02:33:18.352Z,14.78
2022-12-24T02:35:59.462Z,14.74
2022-12-24T02:38:40.548Z,14.71
2022-12-24T02:41:14.911Z,14.71
2022-12-24T02:43:49.417Z,14.68
2022-12-24T02:46:23.569Z,14.67
2022-12-24T02:48:52.862Z,14.68
2022-12-24T02:51:24.511Z,14.68
2022-12-24T02:53:53.415Z,14.65
2022-12-24T02:56:47.403Z,14.63
2022-12-24T02:59:38.797Z,14.62
2022-12-24T03:02:22.474Z,14.57
2022-12-24T03:05:05.114Z,14.53
2022-12-24T03:07:39.888Z,14.48
2022-12-24T03:10:20.376Z,14.46
2022-12-24T03:12:52.364Z,14.42
2022-12-24T03:15:28.347Z,14.40
2022-12-24T03:18:06.071Z,14.39
2022-12-24T03:20:38.487Z,14.36
2022-12-24T03:23:07.069Z,14.34
2022-12-24T03:25:40.875Z,14.31
2022-12-24T03:28:14.040Z,14.26
2022-12-24T03:30:43.105Z,14.24
2022-12-24T03:33:13.405Z,14.24
2022-12-24T03:35:41.937Z,14.24
2022-12-24T03:38:10.734Z,14.22
2022-12-24T03:40:39.014Z,14.25
2022-12-24T03:43:08.113Z,14.25
2022-12-24T03:45:36.611Z,14.23
2022-12-24T03:48:07.684Z,14.18
2022-12-24T03:50:56.965Z,14.15
2022-12-24T03:53:30.184Z,14.11
2022-12-24T03:58:52.455Z,14.04
2022-12-24T04:01:21.748Z,14.01
2022-12-24T04:03:49.928Z,13.96
2022-12-24T04:06:20.210Z,13.93
2022-12-24T04:08:50.109Z,13.87
2022-12-24T04:11:20.199Z,13.81
2022-12-24T04:13:48.793Z,13.75
2022-12-24T04:16:18.609Z,13.67
2022-12-24T04:18:46.824Z,13.62
2022-12-24T04:21:15.956Z,13.54
2022-12-24T04:24:02.694Z,13.52
2022-12-24T04:26:31.148Z,13.50
2022-12-24T04:29:00.908Z,13.48
2022-12-24T04:31:29.272Z,13.46
2022-12-24T04:33:58.472Z,13.41
2022-12-24T04:36:27.236Z,13.38
2022-12-24T04:38:57.113Z,13.34
2022-12-24T04:41:26.959Z,13.30
2022-12-24T04:43:58.760Z,13.29
2022-12-24T04:46:30.699Z,13.26
2022-12-24T04:49:01.917Z,13.26
2022-12-24T04:51:30.815Z,13.24
2022-12-24T04:54:00.935Z,13.23
2022-12-24T04:56:32.181Z,13.20
2022-12-24T04:59:00.994Z,13.21
2022-12-24T05:01:34.967Z,13.18
2022-12-24T05:04:04.695Z,13.18
2022-12-24T05:06:35.257Z,13.14
2022-12-24T05:09:05.067Z,13.10
2022-12-24T05:11:33.689Z,13.07
2022-12-24T05:14:01.875Z,13.06
2022-12-24T05:16:30.722Z,13.04
2022-12-24T05:18:59.086Z,13.02
2022-12-24T05:21:27.802Z,12.97
2022-12-24T05:24:13.642Z,12.95
2022-12-24T05:26:47.841Z,12.93
2022-12-24T05:29:21.690Z,12.91
2022-12-24T05:31:49.871Z,12.91
2022-12-24T05:34:19.448Z,12.91
2022-12-24T05:36:52.308Z,12.95
2022-12-24T05:39:20.945Z,12.96
2022-12-24T05:42:00.895Z,12.94
2022-12-24T05:44:29.717Z,12.94
2022-12-24T05:46:58.140Z,12.93
2022-12-24T05:49:27.143Z,12.91
2022-12-24T05:51:56.422Z,12.89
2022-12-24T06:00:03.937Z,12.81
2022-12-24T06:08:20.457Z,12.78
2022-12-24T06:11:01.711Z,12.76
2022-12-24T06:13:30.402Z,12.74
2022-12-24T06:16:01.503Z,12.72
2022-12-24T06:18:30.913Z,12.73
2022-12-24T06:21:00.528Z,12.71
2022-12-24T06:23:31.645Z,12.74
2022-12-24T06:26:01.894Z,12.75
2022-12-24T06:28:30.477Z,12.73
2022-12-24T06:31:03.379Z,12.70
2022-12-24T06:33:32.252Z,12.65
2022-12-24T06:36:00.811Z,12.61
2022-12-24T06:38:31.206Z,12.59
2022-12-24T06:40:59.271Z,12.55
2022-12-24T06:43:27.370Z,12.53
2022-12-24T06:45:55.464Z,12.50
2022-12-24T06:48:25.259Z,12.52
2022-12-24T06:50:53.301Z,12.50
2022-12-24T06:53:21.411Z,12.52
2022-12-24T06:55:49.381Z,12.53
2022-12-24T06:58:18.059Z,12.50
2022-12-24T07:00:46.201Z,12.52
2022-12-24T07:03:14.139Z,12.50
2022-12-24T07:05:44.009Z,12.52
2022-12-24T07:08:12.039Z,12.55
2022-12-24T07:10:40.045Z,12.54
2022-12-24T07:13:08.029Z,12.57
2022-12-24T07:15:36.113Z,12.55
2022-12-24T07:18:04.336Z,12.58
2022-12-24T07:20:32.302Z,12.60
2022-12-24T07:23:01.881Z,12.60
2022-12-24T07:25:29.987Z,12.60
2022-12-24T07:27:58.653Z,12.60
2022-12-24T07:30:27.241Z,12.60
2022-12-24T07:32:55.256Z,12.60
2022-12-24T07:35:23.563Z,12.61
2022-12-24T07:37:51.691Z,12.59
2022-12-24T07:40:21.301Z,12.59
2022-12-24T07:42:49.273Z,12.61
2022-12-24T07:45:17.441Z,12.61
2022-12-24T07:47:45.399Z,12.65
2022-12-24T07:50:13.575Z,12.66
2022-12-24T07:52:41.547Z,12.68
2022-12-24T07:55:10.389Z,12.70
2022-12-24T07:57:39.849Z,12.69
2022-12-24T08:00:10.856Z,12.71
2022-12-24T08:02:39.656Z,12.74
2022-12-24T08:05:08.949Z,12.76
2022-12-24T08:07:36.973Z,12.76
2022-12-24T08:10:06.103Z,12.78
2022-12-24T08:12:34.096Z,12.78
2022-12-24T08:15:03.683Z,12.78
2022-12-24T08:17:32.564Z,12.77
2022-12-24T08:20:00.704Z,12.76
2022-12-24T08:22:28.717Z,12.79
2022-12-24T08:24:56.753Z,12.80
2022-12-24T08:27:24.698Z,12.84
2022-12-24T08:29:52.681Z,12.86
2022-12-24T08:32:22.325Z,12.86
2022-12-24T08:34:50.375Z,12.88
2022-12-24T08:37:18.434Z,12.87
2022-12-24T08:39:46.460Z,12.89
2022-12-24T08:42:14.660Z,12.88
2022-12-24T08:44:42.685Z,12.88
2022-12-24T08:47:10.677Z,12.89
2022-12-24T08:49:40.568Z,12.90
2022-12-24T08:52:08.608Z,12.94
2022-12-24T08:54:36.528Z,12.93
2022-12-24T08:57:04.655Z,12.95
2022-12-24T08:59:32.829Z,12.98
2022-12-24T09:02:01.869Z,12.99
2022-12-24T09:04:30.086Z,13.04
2022-12-24T09:06:59.719Z,13.07
2022-12-24T09:09:34.124Z,13.13
2022-12-24T09:12:06.127Z,13.18
2022-12-24T09:14:34.637Z,13.21
2022-12-24T09:17:02.680Z,13.23
2022-12-24T09:19:30.725Z,13.28
2022-12-24T09:22:00.146Z,13.32
2022-12-24T09:24:28.144Z,13.37
2022-12-24T09:26:58.159Z,13.42
2022-12-24T09:29:26.427Z,13.48
2022-12-24T09:31:55.327Z,13.53
2022-12-24T09:34:29.995Z,13.56
2022-12-24T09:37:00.797Z,13.60
2022-12-24T09:39:29.107Z,13.65
2022-12-24T09:42:05.552Z,13.70
2022-12-24T09:44:43.285Z,13.75
2022-12-24T09:47:21.165Z,13.78
2022-12-24T09:49:53.557Z,13.82
2022-12-24T09:52:30.751Z,13.84
2022-12-24T09:55:06.682Z,13.89
2022-12-24T09:57:38.953Z,13.87
2022-12-24T10:00:12.971Z,13.88
2022-12-24T10:02:41.142Z,13.89
2022-12-24T10:05:15.882Z,13.97
2022-12-24T10:07:55.100Z,14.01
2022-12-24T10:10:31.536Z,14.09
2022-12-24T10:13:09.275Z,14.18
2022-12-24T10:15:42.568Z,14.27
2022-12-24T10:18:23.452Z,14.34
2022-12-24T10:20:56.342Z,14.38
2022-12-24T10:23:33.261Z,14.47
2022-12-24T10:26:12.707Z,14.58
2022-12-24T10:28:47.526Z,14.68
2022-12-24T10:31:16.315Z,14.76
2022-12-24T10:33:46.048Z,14.84
2022-12-24T10:36:18.790Z,14.90
2022-12-24T10:38:48.343Z,14.96
2022-12-24T10:41:17.422Z,15.00
2022-12-24T10:43:48.030Z,15.06
2022-12-24T10:46:20.946Z,15.11
2022-12-24T10:48:54.640Z,15.15
2022-12-24T10:51:30.391Z,15.20
2022-12-24T10:54:03.489Z,15.26
2022-12-24T10:56:31.693Z,15.28
2022-12-24T10:58:59.852Z,15.31
2022-12-24T11:01:46.474Z,15.33
2022-12-24T11:04:18.859Z,15.35
2022-12-24T11:07:01.164Z,15.35
2022-12-24T11:09:33.208Z,15.38
2022-12-24T11:12:08.897Z,15.36
2022-12-24T11:14:40.413Z,15.38
2022-12-24T11:17:08.651Z,15.38
2022-12-24T11:19:40.290Z,15.39
2022-12-24T11:22:19.192Z,15.39
2022-12-24T11:25:01.464Z,15.45
2022-12-24T11:27:40.534Z,15.50
2022-12-24T11:30:24.911Z,15.50
2022-12-24T11:33:17.806Z,15.53
2022-12-24T11:35:49.279Z,15.50
2022-12-24T11:38:23.362Z,15.50
2022-12-24T11:41:00.359Z,15.49
2022-12-24T11:43:44.629Z,15.48
2022-12-24T11:46:16.014Z,15.52
2022-12-24T11:48:44.775Z,15.51
2022-12-24T11:51:25.373Z,15.56
2022-12-24T11:54:03.351Z,15.60
2022-12-24T11:56:38.335Z,15.64
2022-12-24T11:59:16.817Z,15.66
2022-12-24T12:01:52.926Z,15.69
2022-12-24T12:04:24.034Z,15.71
2022-12-24T12:06:56.590Z,15.76
2022-12-24T12:09:31.535Z,15.77
2022-12-24T12:12:07.520Z,15.80
2022-12-24T12:14:39.613Z,15.89
2022-12-24T12:17:20.050Z,15.94
2022-12-24T12:19:55.153Z,16.06
2022-12-24T12:22:30.048Z,16.16
2022-12-24T12:25:01.121Z,16.27
2022-12-24T12:27:35.171Z,16.33
2022-12-24T12:30:05.874Z,16.42
2022-12-24T12:32:43.331Z,16.50
2022-12-24T12:35:21.772Z,16.57
2022-12-24T12:37:58.331Z,16.62
2022-12-24T12:40:39.153Z,16.70
2022-12-24T12:43:17.358Z,16.76
2022-12-24T12:45:52.506Z,16.84
2022-12-24T12:48:43.952Z,16.82
2022-12-24T12:51:18.271Z,16.83
2022-12-24T12:54:00.781Z,16.84
2022-12-24T12:56:32.294Z,16.88
2022-12-24T12:59:05.704Z,16.87
2022-12-24T13:01:43.325Z,16.84
2022-12-24T13:04:29.797Z,16.84
2022-12-24T13:07:22.616Z,16.84
2022-12-24T13:10:10.508Z,16.86
2022-12-24T13:13:08.868Z,16.87
2022-12-24T13:16:17.580Z,16.92
2022-12-24T13:18:58.820Z,16.96
2022-12-24T13:21:29.340Z,16.98
2022-12-24T13:24:08.221Z,17.03
2022-12-24T13:26:36.494Z,17.03
2022-12-24T13:29:39.827Z,17.01
2022-12-24T13:32:48.419Z,17.00
2022-12-24T13:35:38.559Z,17.04
2022-12-24T13:38:43.525Z,17.10
2022-12-24T13:41:53.883Z,17.15
2022-12-24T13:44:33.154Z,17.27
2022-12-24T13:47:24.227Z,17.36
2022-12-24T13:50:14.354Z,17.45
2022-12-24T13:52:53.149Z,17.56
2022-12-24T13:55:21.849Z,17.67
2022-12-24T13:57:59.243Z,17.75
2022-12-24T14:00:32.090Z,17.88
2022-12-24T14:03:04.982Z,17.95
2022-12-24T14:05:39.260Z,18.04
2022-12-24T14:08:10.101Z,18.07
2022-12-24T14:10:41.571Z,18.10
2022-12-24T14:13:42.784Z,18.15
2022-12-24T14:16:14.267Z,18.09
2022-12-24T14:18:45.255Z,18.13
2022-12-24T14:21:24.917Z,18.13
2022-12-24T14:23:56.365Z,18.13
2022-12-24T14:26:29.578Z,18.05
2022-12-24T14:29:02.932Z,18.06
2022-12-24T14:31:30.923Z,18.11
2022-12-24T14:34:15.724Z,18.10
2022-12-24T14:36:47.510Z,18.16
2022-12-24T14:39:25.542Z,18.31
2022-12-24T14:42:04.763Z,18.46
2022-12-24T14:44:42.773Z,18.65
2022-12-24T14:47:27.121Z,18.78
2022-12-24T14:50:28.085Z,18.96
2022-12-24T14:53:13.524Z,19.20
2022-12-24T14:55:46.861Z,19.43
2022-12-24T14:58:29.902Z,19.59
2022-12-24T15:00:59.929Z,19.63
2022-12-24T15:03:29.906Z,19.62
2022-12-24T15:06:04.331Z,19.58
2022-12-24T15:08:40.419Z,19.43
2022-12-24T15:11:11.456Z,19.36
2022-12-24T15:13:42.176Z,19.28
2022-12-24T15:16:11.948Z,19.19
2022-12-24T15:18:46.286Z,19.12
2022-12-24T15:21:19.569Z,19.02
2022-12-24T15:23:51.962Z,18.90
2022-12-24T15:26:27.963Z,18.69
2022-12-24T15:29:02.774Z,18.47
2022-12-24T15:31:32.280Z,18.25
2022-12-24T15:34:01.165Z,18.02
2022-12-24T15:36:32.774Z,17.81
2022-12-24T15:39:18.269Z,17.50
2022-12-24T15:42:01.219Z,17.35
2022-12-24T15:44:33.456Z,17.16
2022-12-24T15:47:02.681Z,17.00
2022-12-24T15:49:32.405Z,16.89
2022-12-24T15:52:06.212Z,16.75
2022-12-24T15:54:37.154Z,16.68
2022-12-24T15:57:15.850Z,16.58
2022-12-24T15:59:45.394Z,16.50
2022-12-24T16:02:34.281Z,16.41
2022-12-24T16:05:34.734Z,16.31
2022-12-24T16:08:25.104Z,16.26
2022-12-24T16:11:19.763Z,16.18
2022-12-24T16:14:19.454Z,16.10
2022-12-24T16:16:50.237Z,16.07
2022-12-24T16:19:22.747Z,16.00
2022-12-24T16:21:56.725Z,15.93
2022-12-24T16:24:48.787Z,15.96
2022-12-24T16:27:22.837Z,15.92
2022-12-24T16:29:51.072Z,15.95
2022-12-24T16:32:30.866Z,15.89
2022-12-24T16:34:59.411Z,15.86
2022-12-24T16:37:28.568Z,15.83
2022-12-24T16:39:57.278Z,15.79
2022-12-24T16:42:45.068Z,15.80
2022-12-24T16:45:13.083Z,15.79
2022-12-24T16:47:43.567Z,15.81
2022-12-24T16:50:20.088Z,15.82
2022-12-24T16:52:48.255Z,15.79
2022-12-24T16:55:17.002Z,15.80
2022-12-24T16:57:46.776Z,15.80
2022-12-24T17:00:18.360Z,15.80
2022-12-24T17:02:47.382Z,15.74
2022-12-24T17:05:17.662Z,15.75
2022-12-24T17:07:45.875Z,15.72
2022-12-24T17:10:15.454Z,15.74
2022-12-24T17:12:43.822Z,15.79
2022-12-24T17:15:13.853Z,15.79
2022-12-24T17:17:42.594Z,15.78
2022-12-24T17:20:11.848Z,15.85
2022-12-24T17:22:40.734Z,15.89
2022-12-24T17:25:09.548Z,15.87
2022-12-24T17:27:37.889Z,15.83
2022-12-24T17:30:06.827Z,15.84
2022-12-24T17:32:37.610Z,15.82
2022-12-24T17:35:06.359Z,15.80
2022-12-24T17:37:34.686Z,15.79
2022-12-24T17:40:03.141Z,15.75
2022-12-24T17:42:31.512Z,15.69
2022-12-24T17:44:59.847Z,15.65
2022-12-24T17:47:27.880Z,15.59
2022-12-24T17:49:57.792Z,15.53
2022-12-24T17:52:25.946Z,15.49
2022-12-24T17:54:55.289Z,15.40
2022-12-24T17:57:23.852Z,15.40
2022-12-24T17:59:52.220Z,15.36
2022-12-24T18:02:20.622Z,15.35
2022-12-24T18:04:49.177Z,15.32
2022-12-24T18:07:19.005Z,15.33
2022-12-24T18:09:47.299Z,15.35
2022-12-24T18:12:16.257Z,15.36
2022-12-24T18:14:45.060Z,15.39
2022-12-24T18:17:13.653Z,15.46
2022-12-24T18:19:41.830Z,15.49
2022-12-24T18:22:09.972Z,15.59
2022-12-24T18:24:39.411Z,15.62
2022-12-24T18:27:08.058Z,15.66
2022-12-24T18:29:40.351Z,15.72
2022-12-24T18:32:08.505Z,15.73
2022-12-24T18:34:37.147Z,15.70
2022-12-24T18:37:05.332Z,15.69
2022-12-24T18:39:33.647Z,15.70
2022-12-24T18:42:03.071Z,15.64
2022-12-24T18:44:31.527Z,15.61
2022-12-24T18:47:00.013Z,15.53
2022-12-24T18:49:28.418Z,15.51
2022-12-24T18:51:56.991Z,15.54
2022-12-24T18:54:25.234Z,15.48
2022-12-24T18:56:53.636Z,15.47
2022-12-24T18:59:23.553Z,15.39
2022-12-24T19:01:52.002Z,15.42
2022-12-24T19:04:20.485Z,15.41
2022-12-24T19:06:53.315Z,15.45
2022-12-24T19:09:22.119Z,15.43
2022-12-24T19:11:50.988Z,15.43
2022-12-24T19:14:20.500Z,15.45
2022-12-24T19:16:50.143Z,15.42
2022-12-24T19:19:21.379Z,15.43
2022-12-24T19:21:49.433Z,15.45
2022-12-24T19:24:17.453Z,15.43
2022-12-24T19:26:45.486Z,15.41
2022-12-24T19:29:13.537Z,15.40
2022-12-24T19:31:44.340Z,15.36
2022-12-24T19:34:14.448Z,15.38
2022-12-24T19:36:42.396Z,15.37
2022-12-24T19:39:10.389Z,15.36
2022-12-24T19:41:38.772Z,15.37
2022-12-24T19:44:07.139Z,15.36
2022-12-24T19:46:38.135Z,15.36
2022-12-24T19:49:08.176Z,15.35
2022-12-24T19:51:37.682Z,15.35
2022-12-24T19:54:13.292Z,15.31
2022-12-24T19:56:44.840Z,15.32
2022-12-24T19:59:13.287Z,15.27
2022-12-24T20:01:41.487Z,15.29
2022-12-24T20:04:10.535Z,15.29
2022-12-24T20:06:40.078Z,15.30
2022-12-24T20:09:09.143Z,15.35
2022-12-24T20:11:37.262Z,15.35
2022-12-24T20:14:07.482Z,15.39
2022-12-24T20:16:36.145Z,15.41
2022-12-24T20:19:07.096Z,15.49
2022-12-24T20:21:35.700Z,15.48
2022-12-24T20:24:06.723Z,15.49
2022-12-24T20:26:35.161Z,15.52
2022-12-24T20:29:05.263Z,15.50
2022-12-24T20:31:34.359Z,15.52
2022-12-24T20:34:16.444Z,15.53
2022-12-24T20:40:05.641Z,15.52
2022-12-24T20:42:58.999Z,15.53
2022-12-24T20:45:41.051Z,15.61
2022-12-24T20:48:31.263Z,15.67
2022-12-24T20:54:24.298Z,15.70
2022-12-24T21:00:43.144Z,15.75
2022-12-24T21:03:26.079Z,15.78
2022-12-24T21:06:43.272Z,15.69
2022-12-24T21:12:34.130Z,15.64
2022-12-24T21:18:14.209Z,15.58
2022-12-24T21:20:46.738Z,15.60
2022-12-24T21:26:19.201Z,15.59
2022-12-24T21:28:48.064Z,15.54
2022-12-24T21:31:16.439Z,15.53
2022-12-24T21:33:46.675Z,15.55
2022-12-24T21:36:21.549Z,15.52
2022-12-24T21:38:51.138Z,15.47
2022-12-24T21:41:24.843Z,15.43
2022-12-24T21:43:55.661Z,15.45
2022-12-24T21:46:25.891Z,15.45
2022-12-24T21:49:21.127Z,15.44
2022-12-24T21:51:49.353Z,15.42
2022-12-24T21:54:30.787Z,15.43
2022-12-24T21:57:18.959Z,15.44
2022-12-24T21:59:47.944Z,15.44
2022-12-24T22:02:17.440Z,15.43
2022-12-24T22:04:47.866Z,15.44
2022-12-24T22:07:41.759Z,15.45
2022-12-24T22:10:28.361Z,15.41
2022-12-24T22:12:58.346Z,15.42
2022-12-24T22:15:27.403Z,15.41
2022-12-24T22:17:55.419Z,15.42
2022-12-24T22:20:25.315Z,15.40
2022-12-24T22:22:54.479Z,15.40
2022-12-24T22:25:23.322Z,15.37
2022-12-24T22:27:52.623Z,15.34
2022-12-24T22:30:35.460Z,15.30
2022-12-24T22:33:04.047Z,15.30
2022-12-24T22:35:35.846Z,15.27
2022-12-24T22:38:04.504Z,15.29
2022-12-24T22:40:46.770Z,15.24
2022-12-24T22:43:15.156Z,15.20
2022-12-24T22:45:43.349Z,15.21
2022-12-24T22:48:12.572Z,15.19
2022-12-24T22:50:45.717Z,15.24
2022-12-24T22:53:14.191Z,15.20
2022-12-24T22:55:42.172Z,15.20
2022-12-24T22:58:11.129Z,15.17
2022-12-24T23:00:42.270Z,15.18
2022-12-24T23:03:12.113Z,15.16
2022-12-24T23:05:41.109Z,15.19
2022-12-24T23:08:12.607Z,15.16
2022-12-24T23:10:42.248Z,15.14
2022-12-24T23:13:29.893Z,15.11
2022-12-24T23:16:03.057Z,15.10
2022-12-24T23:18:31.783Z,15.06
2022-12-24T23:21:00.774Z,15.07
2022-12-24T23:23:36.481Z,15.02
2022-12-24T23:26:06.017Z,14.99
2022-12-24T23:28:34.316Z,14.97
2022-12-24T23:31:03.180Z,14.96
2022-12-24T23:33:31.729Z,14.93
2022-12-24T23:35:59.813Z,14.91
2022-12-24T23:38:29.488Z,14.89
2022-12-24T23:40:57.590Z,14.89
2022-12-24T23:43:26.153Z,14.85
2022-12-24T23:45:55.269Z,14.86
2022-12-24T23:48:24.802Z,14.83
2022-12-24T23:50:53.641Z,14.81
2022-12-24T23:53:21.860Z,14.80
2022-12-24T23:55:51.305Z,14.82
2022-12-24T23:58:19.385Z,14.81
